Time;durP1;ratioP1;P1;durP2;ratioP2;P2;SDS_P1;SDS_P2;PMS_P1;PMS_P2;Temp;Humidity;BMP_temperature;BMP_pressure;BME280_temperature;BME280_humidity;BME280_pressure;Samples;Min_cycle;Max_cycle;Signal;HPM_P1;HPM_P2
2023/04/28 00:00:18;;;;;;;8.17;5.03;;;9.60;1.00;;;;;;4994386;28;20646;-71
2023/04/28 00:02:47;;;;;;;7.03;5.00;;;9.60;1.00;;;;;;5009030;28;20638;-71
2023/04/28 00:05:14;;;;;;;8.80;5.27;;;9.60;1.00;;;;;;5006970;28;20303;-70
2023/04/28 00:07:42;;;;;;;7.67;5.10;;;9.60;1.00;;;;;;5012135;28;20246;-71
2023/04/28 00:10:09;;;;;;;5.23;4.47;;;9.60;1.00;;;;;;4992576;28;20316;-70
2023/04/28 00:12:36;;;;;;;5.73;4.93;;;9.70;1.00;;;;;;5011931;28;20590;-70
2023/04/28 00:15:03;;;;;;;8.03;5.23;;;9.70;1.00;;;;;;5011970;28;20668;-70
2023/04/28 00:17:30;;;;;;;6.50;5.40;;;9.60;1.00;;;;;;4991242;28;20201;-70
2023/04/28 00:19:58;;;;;;;7.47;5.00;;;9.60;1.00;;;;;;5011517;28;20228;-76
2023/04/28 00:22:24;;;;;;;9.43;4.90;;;9.60;1.00;;;;;;5011862;28;20213;-71
2023/04/28 00:24:51;;;;;;;8.90;5.17;;;9.60;1.00;;;;;;5011592;28;20201;-71
2023/04/28 00:27:19;;;;;;;7.00;5.37;;;9.60;1.00;;;;;;4994300;28;20208;-71
2023/04/28 00:29:46;;;;;;;6.03;4.97;;;9.60;1.00;;;;;;5010333;28;20625;-71
2023/04/28 00:32:13;;;;;;;11.50;5.60;;;9.60;1.00;;;;;;4993942;28;20259;-71
2023/04/28 00:34:40;;;;;;;9.60;5.40;;;9.60;1.00;;;;;;5010063;28;20205;-71
2023/04/28 00:37:07;;;;;;;8.03;5.37;;;9.60;1.00;;;;;;5011238;28;20239;-71
2023/04/28 00:39:34;;;;;;;7.67;5.23;;;9.60;1.00;;;;;;4996528;28;20208;-71
2023/04/28 00:42:03;;;;;;;15.30;5.83;;;9.60;1.00;;;;;;5010131;28;20279;-71
2023/04/28 00:44:30;;;;;;;8.20;5.60;;;9.60;1.00;;;;;;5011968;28;20764;-71
2023/04/28 00:46:58;;;;;;;7.37;5.47;;;9.60;1.00;;;;;;4994521;28;20208;-71
2023/04/28 00:49:25;;;;;;;8.33;5.77;;;9.60;1.00;;;;;;4992486;28;20205;-70
2023/04/28 00:51:52;;;;;;;9.30;5.77;;;9.60;1.00;;;;;;4992951;28;20276;-71
2023/04/28 00:54:19;;;;;;;11.43;5.67;;;9.60;1.00;;;;;;4992223;28;20197;-71
2023/04/28 00:56:47;;;;;;;7.33;5.67;;;9.60;1.00;;;;;;4991904;28;20430;-71
2023/04/28 00:59:14;;;;;;;11.37;6.07;;;9.60;1.00;;;;;;5007954;28;20201;-71
2023/04/28 01:01:42;;;;;;;10.93;6.10;;;9.60;1.00;;;;;;5009616;28;20193;-72
2023/04/28 01:04:10;;;;;;;10.33;5.93;;;9.60;1.00;;;;;;5010624;28;20255;-72
2023/04/28 01:06:41;;;;;;;9.93;6.13;;;9.60;1.00;;;;;;4992770;28;20200;-71
2023/04/28 01:09:08;;;;;;;14.23;6.70;;;9.60;1.00;;;;;;5007768;28;20711;-72
2023/04/28 01:11:36;;;;;;;13.00;6.13;;;9.60;1.00;;;;;;4993602;28;20197;-71
2023/04/28 01:14:08;;;;;;;11.50;6.43;;;9.60;1.00;;;;;;4993286;28;20251;-71
2023/04/28 01:16:39;;;;;;;8.37;6.13;;;9.60;1.00;;;;;;4994141;28;20197;-72
2023/04/28 01:19:11;;;;;;;9.67;6.37;;;9.60;1.00;;;;;;5010322;28;20283;-72
2023/04/28 01:21:38;;;;;;;9.43;6.00;;;9.70;1.00;;;;;;5009078;28;20203;-71
2023/04/28 01:24:16;;;;;;;7.67;5.83;;;9.70;1.00;;;;;;4994063;28;20193;-74
2023/04/28 01:26:44;;;;;;;9.43;5.60;;;9.70;1.00;;;;;;4992781;28;20197;-72
2023/04/28 01:29:12;;;;;;;10.60;6.40;;;9.70;1.00;;;;;;5008286;28;20209;-69
2023/04/28 01:31:40;;;;;;;10.13;6.57;;;9.70;1.00;;;;;;5010125;28;20945;-71
2023/04/28 01:34:07;;;;;;;10.50;6.10;;;9.80;1.00;;;;;;5007502;28;20205;-71
2023/04/28 01:36:35;;;;;;;8.83;6.13;;;9.80;1.00;;;;;;5007761;28;20224;-71
2023/04/28 01:39:04;;;;;;;9.27;6.63;;;9.80;1.00;;;;;;5008121;28;20803;-71
2023/04/28 01:41:33;;;;;;;9.57;6.23;;;9.80;1.00;;;;;;5010560;28;20213;-71
2023/04/28 01:44:00;;;;;;;10.13;6.00;;;9.80;1.00;;;;;;4993750;28;20205;-70
2023/04/28 01:46:27;;;;;;;7.83;5.97;;;9.80;1.00;;;;;;5009710;28;20192;-71
2023/04/28 01:48:54;;;;;;;8.57;6.20;;;9.80;1.00;;;;;;5006870;28;20212;-70
2023/04/28 01:51:21;;;;;;;12.50;5.90;;;9.80;1.00;;;;;;5008408;28;20563;-72
2023/04/28 01:53:48;;;;;;;7.40;5.30;;;9.80;1.00;;;;;;4991113;28;20208;-71
2023/04/28 01:56:15;;;;;;;11.90;6.23;;;9.80;1.00;;;;;;4982395;28;20197;-70
2023/04/28 01:58:43;;;;;;;7.33;6.00;;;9.80;1.00;;;;;;5007092;28;20453;-71
2023/04/28 02:01:11;;;;;;;9.40;6.47;;;9.80;1.00;;;;;;4990939;28;20197;-70
2023/04/28 02:03:38;;;;;;;10.87;6.33;;;9.90;1.00;;;;;;5005805;28;20221;-70
2023/04/28 02:06:06;;;;;;;9.87;6.97;;;9.90;1.00;;;;;;4984672;28;22237;-72
2023/04/28 02:08:34;;;;;;;9.07;6.90;;;9.90;1.00;;;;;;5002741;28;20195;-71
2023/04/28 02:11:02;;;;;;;9.83;6.60;;;9.90;1.00;;;;;;4990123;28;20213;-71
2023/04/28 02:13:29;;;;;;;10.83;7.17;;;10.00;1.00;;;;;;4990593;28;20615;-70
2023/04/28 02:16:00;;;;;;;11.17;8.23;;;9.90;1.00;;;;;;4969287;28;20320;-70
2023/04/28 02:18:27;;;;;;;7.80;6.50;;;9.90;1.00;;;;;;5001967;28;20400;-71
2023/04/28 02:21:08;;;;;;;9.97;6.83;;;9.90;1.00;;;;;;5007978;28;20259;-70
2023/04/28 02:23:35;;;;;;;8.27;6.33;;;9.80;1.00;;;;;;5008322;28;20192;-71
2023/04/28 02:26:04;;;;;;;10.87;7.07;;;9.80;1.00;;;;;;5008072;28;20667;-70
2023/04/28 02:28:31;;;;;;;9.50;6.80;;;9.80;1.00;;;;;;4992149;28;20563;-72
2023/04/28 02:31:10;;;;;;;8.70;6.23;;;9.80;1.00;;;;;;5009236;28;20295;-72
2023/04/28 02:33:37;;;;;;;10.57;6.90;;;9.80;1.00;;;;;;5008315;28;20196;-72
2023/04/28 02:36:06;;;;;;;13.30;7.23;;;9.80;1.00;;;;;;5009950;28;20246;-72
2023/04/28 02:38:34;;;;;;;9.33;7.33;;;9.70;1.00;;;;;;4992202;28;20693;-71
2023/04/28 02:41:04;;;;;;;12.43;6.90;;;9.70;1.00;;;;;;5009620;28;20289;-71
2023/04/28 02:43:32;;;;;;;8.23;6.77;;;9.70;1.00;;;;;;5013854;28;20203;-71
2023/04/28 02:45:59;;;;;;;8.23;6.77;;;9.70;1.00;;;;;;5008547;28;20212;-71
2023/04/28 02:48:27;;;;;;;9.80;7.63;;;9.60;1.00;;;;;;5009286;28;20201;-71
2023/04/28 02:50:54;;;;;;;10.40;7.27;;;9.70;1.00;;;;;;4992016;28;20217;-71
2023/04/28 02:53:21;;;;;;;11.27;7.50;;;9.60;1.00;;;;;;5008956;28;20197;-71
2023/04/28 02:55:49;;;;;;;11.00;8.00;;;9.60;1.00;;;;;;4992342;28;20240;-73
2023/04/28 02:58:16;;;;;;;15.70;7.63;;;9.50;1.00;;;;;;5010184;28;20185;-72
2023/04/28 03:00:45;;;;;;;11.00;7.70;;;9.50;1.00;;;;;;4990315;28;20324;-73
2023/04/28 03:03:12;;;;;;;11.17;7.70;;;9.50;1.00;;;;;;4992155;28;20228;-72
2023/04/28 03:05:39;;;;;;;9.23;7.27;;;9.50;1.00;;;;;;5008435;28;20255;-71
2023/04/28 03:08:06;;;;;;;9.77;7.30;;;9.50;1.00;;;;;;4994173;28;20438;-72
2023/04/28 03:10:33;;;;;;;9.03;7.13;;;9.60;1.00;;;;;;4989403;28;20225;-71
2023/04/28 03:13:02;;;;;;;17.07;7.80;;;9.60;1.00;;;;;;5006990;28;20201;-71
2023/04/28 03:15:29;;;;;;;10.20;7.47;;;9.60;1.00;;;;;;5011259;28;20579;-72
2023/04/28 03:17:56;;;;;;;13.30;7.40;;;9.60;1.00;;;;;;5011541;28;20219;-73
2023/04/28 03:20:23;;;;;;;9.67;8.03;;;9.60;1.00;;;;;;5012565;28;20232;-72
2023/04/28 03:22:50;;;;;;;12.20;8.40;;;9.60;1.00;;;;;;4994655;28;20530;-72
2023/04/28 03:25:18;;;;;;;12.00;7.87;;;9.60;1.00;;;;;;4989130;28;20201;-69
2023/04/28 03:27:48;;;;;;;9.00;7.60;;;9.60;1.00;;;;;;5005270;28;20205;-70
2023/04/28 03:30:15;;;;;;;13.20;7.87;;;9.70;1.00;;;;;;4999761;28;20298;-69
2023/04/28 03:32:42;;;;;;;11.63;8.53;;;9.70;1.00;;;;;;5004311;28;20251;-69
2023/04/28 03:35:09;;;;;;;15.83;9.40;;;9.60;1.00;;;;;;5007464;28;20185;-69
2023/04/28 03:37:37;;;;;;;13.17;9.87;;;9.60;1.00;;;;;;5009446;28;20197;-69
2023/04/28 03:40:05;;;;;;;12.50;9.93;;;9.60;1.00;;;;;;5010459;28;20208;-69
2023/04/28 03:42:50;;;;;;;12.33;9.67;;;9.60;1.00;;;;;;4994624;28;20197;-69
2023/04/28 03:45:25;;;;;;;12.13;9.73;;;9.50;1.00;;;;;;5008842;28;20656;-69
2023/04/28 03:47:52;;;;;;;14.30;9.80;;;9.50;1.00;;;;;;4987749;28;20197;-69
2023/04/28 03:50:19;;;;;;;14.43;9.53;;;9.50;1.00;;;;;;5006391;28;20216;-69
2023/04/28 03:52:46;;;;;;;14.40;10.00;;;9.50;1.00;;;;;;4990348;28;21454;-69
2023/04/28 03:55:14;;;;;;;16.07;10.23;;;9.40;1.00;;;;;;4992912;28;20433;-69
2023/04/28 03:57:41;;;;;;;14.17;9.70;;;9.40;1.00;;;;;;4990087;28;20207;-69
2023/04/28 04:00:09;;;;;;;12.83;8.80;;;9.40;1.00;;;;;;4988132;28;20204;-69
2023/04/28 04:02:41;;;;;;;13.53;10.13;;;9.30;1.00;;;;;;5009046;28;20231;-69
2023/04/28 04:05:08;;;;;;;12.47;10.43;;;9.30;1.00;;;;;;4971055;28;20200;-69
2023/04/28 04:07:36;;;;;;;15.53;10.40;;;9.20;1.00;;;;;;5007012;28;20598;-70
2023/04/28 04:10:04;;;;;;;14.20;10.10;;;9.20;1.00;;;;;;5007673;28;20231;-69
2023/04/28 04:12:33;;;;;;;15.63;11.10;;;9.20;1.00;;;;;;4990735;28;20676;-69
2023/04/28 04:15:00;;;;;;;13.50;9.87;;;9.20;1.00;;;;;;4974022;28;20692;-69
2023/04/28 04:17:27;;;;;;;14.83;10.17;;;9.20;1.00;;;;;;4991510;28;20204;-69
2023/04/28 04:19:54;;;;;;;14.13;10.53;;;9.20;1.00;;;;;;5006039;28;20339;-69
2023/04/28 04:22:21;;;;;;;12.23;10.93;;;9.20;1.00;;;;;;4990361;28;20209;-69
2023/04/28 04:24:48;;;;;;;12.10;10.40;;;9.20;1.00;;;;;;5005437;28;20845;-69
2023/04/28 04:27:15;;;;;;;15.83;10.87;;;9.20;1.00;;;;;;4973947;28;20213;-69
2023/04/28 04:29:42;;;;;;;14.97;11.53;;;9.20;1.00;;;;;;5008162;28;20587;-69
2023/04/28 04:32:12;;;;;;;16.43;11.10;;;9.10;1.00;;;;;;5005893;28;20217;-68
2023/04/28 04:34:40;;;;;;;16.33;10.83;;;9.10;1.00;;;;;;4989349;28;20189;-69
2023/04/28 04:37:08;;;;;;;12.57;10.97;;;9.10;1.00;;;;;;4989132;28;20956;-69
2023/04/28 04:39:41;;;;;;;19.20;11.87;;;9.20;1.00;;;;;;5006305;28;20672;-69
2023/04/28 04:42:08;;;;;;;14.83;10.87;;;9.20;1.00;;;;;;4976191;28;20216;-69
2023/04/28 04:45:08;;;;;;;18.10;11.67;;;9.20;1.00;;;;;;4990744;28;20216;-69
2023/04/28 04:47:35;;;;;;;16.73;11.73;;;9.20;1.00;;;;;;4970594;28;20212;-69
2023/04/28 04:50:03;;;;;;;16.33;11.37;;;9.20;1.00;;;;;;4991363;28;20778;-69
2023/04/28 04:52:30;;;;;;;14.60;11.00;;;9.20;1.00;;;;;;4988545;28;20208;-69
2023/04/28 04:54:57;;;;;;;14.77;10.30;;;9.20;1.00;;;;;;4988291;28;20197;-69
2023/04/28 04:57:24;;;;;;;13.97;10.67;;;9.30;1.00;;;;;;5004378;28;20200;-69
2023/04/28 05:00:21;;;;;;;14.07;11.07;;;9.40;1.00;;;;;;5001310;28;20673;-69
2023/04/28 05:02:48;;;;;;;14.80;11.23;;;9.50;1.00;;;;;;4985651;28;20312;-69
2023/04/28 05:05:16;;;;;;;15.93;10.83;;;9.50;1.00;;;;;;5007709;28;20212;-69
2023/04/28 05:08:33;;;;;;;15.23;11.43;;;9.40;1.00;;;;;;5001559;28;20247;-69
2023/04/28 05:11:01;;;;;;;16.97;11.30;;;9.50;1.00;;;;;;5004703;28;20293;-69
2023/04/28 05:13:28;;;;;;;15.70;11.93;;;9.50;1.00;;;;;;4991425;28;20199;-69
2023/04/28 05:16:00;;;;;;;14.63;10.73;;;9.50;1.00;;;;;;4991503;28;20255;-69
2023/04/28 05:18:38;;;;;;;15.00;11.43;;;9.60;1.00;;;;;;4989782;28;20221;-69
2023/04/28 05:21:05;;;;;;;15.60;10.63;;;9.60;1.00;;;;;;4970052;28;20242;-69
2023/04/28 05:23:33;;;;;;;15.67;10.90;;;9.60;1.00;;;;;;4981233;28;20210;-69
2023/04/28 05:26:00;;;;;;;16.87;11.57;;;9.70;1.00;;;;;;4953552;28;20206;-69
2023/04/28 05:28:27;;;;;;;11.60;10.40;;;9.70;1.00;;;;;;4964109;28;20202;-69
2023/04/28 05:30:55;;;;;;;13.10;10.47;;;9.70;1.00;;;;;;4967939;28;20218;-69
2023/04/28 05:33:22;;;;;;;12.70;10.10;;;9.70;1.00;;;;;;4967722;28;20194;-69
2023/04/28 05:35:50;;;;;;;12.30;10.83;;;9.80;1.00;;;;;;4961183;28;20229;-69
2023/04/28 05:38:17;;;;;;;14.17;11.00;;;9.80;1.00;;;;;;4951296;28;20261;-69
2023/04/28 05:40:46;;;;;;;14.63;10.57;;;9.80;1.00;;;;;;4964168;28;20194;-69
2023/04/28 05:43:13;;;;;;;14.57;11.27;;;9.90;1.00;;;;;;4965080;28;20626;-69
2023/04/28 05:45:41;;;;;;;14.37;10.47;;;9.90;1.00;;;;;;4976253;28;20198;-69
2023/04/28 05:48:09;;;;;;;14.33;10.37;;;9.90;1.00;;;;;;4966745;28;20745;-69
2023/04/28 05:50:37;;;;;;;13.17;11.07;;;10.00;1.00;;;;;;4950977;28;20786;-69
2023/04/28 05:53:06;;;;;;;14.87;10.97;;;10.00;1.00;;;;;;4963574;28;20586;-69
2023/04/28 05:55:35;;;;;;;18.97;10.80;;;10.10;1.00;;;;;;4966345;28;20257;-69
2023/04/28 05:58:03;;;;;;;12.47;10.43;;;10.10;1.00;;;;;;4976889;28;20198;-69
2023/04/28 06:00:30;;;;;;;12.57;10.90;;;10.10;1.00;;;;;;4978945;28;20205;-69
2023/04/28 06:02:59;;;;;;;13.83;9.80;;;10.20;1.00;;;;;;4967246;28;20685;-70
2023/04/28 06:05:28;;;;;;;14.07;10.53;;;10.30;1.00;;;;;;4966387;28;20597;-69
2023/04/28 06:07:55;;;;;;;11.27;10.07;;;10.30;1.00;;;;;;4967300;28;20845;-69
2023/04/28 06:10:24;;;;;;;12.27;9.73;;;10.50;1.00;;;;;;4964517;28;20248;-69
2023/04/28 06:12:51;;;;;;;13.37;9.03;;;10.70;1.00;;;;;;4983055;28;20206;-69
2023/04/28 06:15:18;;;;;;;10.83;8.40;;;10.80;1.00;;;;;;4959986;28;20190;-69
2023/04/28 06:17:46;;;;;;;12.60;8.83;;;10.90;1.00;;;;;;4966340;28;20277;-69
2023/04/28 06:20:15;;;;;;;10.70;8.83;;;11.00;1.00;;;;;;4977936;28;20256;-68
2023/04/28 06:22:42;;;;;;;11.13;8.93;;;11.00;1.00;;;;;;4988569;28;20566;-70
2023/04/28 06:25:09;;;;;;;9.13;8.20;;;11.00;1.00;;;;;;4986977;28;20665;-69
2023/04/28 06:27:44;;;;;;;9.63;8.30;;;11.10;1.00;;;;;;5004531;28;20217;-69
2023/04/28 06:30:18;;;;;;;10.20;8.33;;;11.00;1.00;;;;;;4982146;28;20240;-69
2023/04/28 06:32:45;;;;;;;11.00;8.50;;;11.10;1.00;;;;;;4986006;28;20669;-69
2023/04/28 06:35:13;;;;;;;14.53;8.17;;;11.00;1.00;;;;;;5001897;28;20194;-69
2023/04/28 06:37:40;;;;;;;12.07;8.50;;;10.90;1.00;;;;;;4986056;28;20260;-69
2023/04/28 06:40:08;;;;;;;11.77;8.53;;;10.90;1.00;;;;;;4983389;28;20690;-69
2023/04/28 06:42:39;;;;;;;11.23;8.03;;;10.90;1.00;;;;;;4984806;28;20229;-70
2023/04/28 06:45:10;;;;;;;10.80;8.20;;;11.00;1.00;;;;;;4982572;28;20252;-70
2023/04/28 06:47:39;;;;;;;15.13;8.60;;;11.10;1.00;;;;;;4984775;28;20552;-69
2023/04/28 06:50:08;;;;;;;12.17;8.40;;;11.10;1.00;;;;;;5004661;28;20236;-69
2023/04/28 06:52:37;;;;;;;11.27;8.57;;;11.20;1.00;;;;;;4989452;28;20189;-71
2023/04/28 06:55:09;;;;;;;10.47;7.90;;;11.30;1.00;;;;;;4989166;28;20190;-70
2023/04/28 06:57:39;;;;;;;12.63;8.70;;;11.50;1.00;;;;;;4990193;28;20189;-70
2023/04/28 07:00:07;;;;;;;10.83;7.93;;;11.30;1.00;;;;;;4989945;28;20308;-69
2023/04/28 07:02:35;;;;;;;10.90;7.80;;;11.30;1.00;;;;;;4988461;28;20704;-70
2023/04/28 07:05:03;;;;;;;11.73;8.40;;;11.30;1.00;;;;;;4990176;28;20281;-70
2023/04/28 07:07:30;;;;;;;10.33;8.03;;;11.20;1.00;;;;;;4991853;28;20198;-70
2023/04/28 07:09:59;;;;;;;11.27;8.43;;;11.20;1.00;;;;;;4989139;28;20208;-70
2023/04/28 07:12:26;;;;;;;13.33;8.17;;;11.20;1.00;;;;;;4990832;28;20213;-70
2023/04/28 07:14:54;;;;;;;9.40;8.50;;;11.10;1.00;;;;;;4991214;28;20227;-70
2023/04/28 07:17:21;;;;;;;9.33;7.83;;;11.10;1.00;;;;;;5001474;28;20228;-69
2023/04/28 07:19:49;;;;;;;12.20;8.80;;;11.10;1.00;;;;;;4985204;28;20226;-70
2023/04/28 07:22:17;;;;;;;9.90;8.50;;;11.10;1.00;;;;;;4970337;28;20308;-70
2023/04/28 07:24:44;;;;;;;11.67;8.10;;;11.30;1.00;;;;;;4970498;28;20662;-70
2023/04/28 07:27:11;;;;;;;12.07;8.83;;;11.40;1.00;;;;;;4971323;28;20281;-69
2023/04/28 07:29:38;;;;;;;15.27;8.73;;;11.30;1.00;;;;;;4968524;28;20194;-69
2023/04/28 07:32:07;;;;;;;9.90;8.20;;;11.30;1.00;;;;;;4970885;28;20293;-69
2023/04/28 07:34:36;;;;;;;10.00;8.20;;;11.40;1.00;;;;;;4968696;28;20187;-69
2023/04/28 07:37:03;;;;;;;13.53;8.83;;;11.40;1.00;;;;;;4953615;28;20199;-70
2023/04/28 07:39:33;;;;;;;11.47;8.43;;;11.50;1.00;;;;;;4969977;28;21800;-70
2023/04/28 07:42:01;;;;;;;11.83;8.73;;;11.50;1.00;;;;;;4969244;28;20680;-69
2023/04/28 07:44:29;;;;;;;12.47;9.73;;;11.40;1.00;;;;;;4970600;28;20194;-70
2023/04/28 07:46:58;;;;;;;13.67;9.57;;;11.30;1.00;;;;;;4969421;28;20244;-70
2023/04/28 07:49:29;;;;;;;13.17;9.63;;;11.30;1.00;;;;;;4970110;28;20209;-70
2023/04/28 07:51:56;;;;;;;13.20;9.70;;;11.40;1.00;;;;;;4970281;28;20210;-70
2023/04/28 07:54:23;;;;;;;12.03;9.53;;;11.50;1.00;;;;;;4969153;28;20690;-69
2023/04/28 07:56:50;;;;;;;14.50;9.53;;;11.50;1.00;;;;;;4969977;28;20717;-69
2023/04/28 07:59:17;;;;;;;13.40;9.40;;;11.40;1.00;;;;;;4965746;28;20320;-70
2023/04/28 08:01:44;;;;;;;14.30;9.93;;;11.40;1.00;;;;;;4965342;28;20198;-68
2023/04/28 08:04:11;;;;;;;13.70;9.77;;;11.40;1.00;;;;;;4964330;28;20686;-69
2023/04/28 08:06:40;;;;;;;12.77;10.10;;;11.40;1.00;;;;;;4969170;28;20213;-69
2023/04/28 08:09:07;;;;;;;14.17;9.00;;;11.50;1.00;;;;;;4952626;28;20655;-70
2023/04/28 08:11:34;;;;;;;15.47;9.20;;;11.60;1.00;;;;;;4965957;28;20713;-69
2023/04/28 08:14:01;;;;;;;10.23;8.80;;;11.70;1.00;;;;;;4967973;28;20289;-69
2023/04/28 08:16:40;;;;;;;15.00;8.90;;;11.70;1.00;;;;;;4969173;28;20269;-69
2023/04/28 08:19:07;;;;;;;11.43;9.03;;;11.80;1.00;;;;;;4969253;28;20205;-69
2023/04/28 08:21:35;;;;;;;11.70;8.90;;;11.80;1.00;;;;;;4968292;28;20601;-70
2023/04/28 08:24:02;;;;;;;10.83;7.97;;;11.80;1.00;;;;;;4969324;28;20198;-69
2023/04/28 08:26:29;;;;;;;10.23;8.40;;;12.00;1.00;;;;;;4968041;28;20212;-70
2023/04/28 08:28:56;;;;;;;11.40;8.37;;;12.10;1.00;;;;;;4968523;28;20249;-69
2023/04/28 08:31:23;;;;;;;10.50;8.47;;;12.40;1.00;;;;;;4951145;28;20308;-70
2023/04/28 08:33:50;;;;;;;8.33;7.47;;;12.70;1.00;;;;;;4966106;28;20598;-69
2023/04/28 08:36:17;;;;;;;10.80;8.10;;;13.00;1.00;;;;;;4968250;28;20274;-70
2023/04/28 08:38:44;;;;;;;12.17;7.67;;;13.10;1.00;;;;;;4966821;28;20190;-70
2023/04/28 08:41:15;;;;;;;10.47;8.10;;;13.10;1.00;;;;;;4979528;28;20202;-70
2023/04/28 08:43:43;;;;;;;9.40;7.97;;;13.10;1.00;;;;;;4968156;28;20194;-70
2023/04/28 08:46:13;;;;;;;9.00;8.13;;;13.10;1.00;;;;;;4982193;28;20205;-70
2023/04/28 08:48:43;;;;;;;11.33;7.90;;;13.20;1.00;;;;;;4977695;28;20221;-70
2023/04/28 08:51:16;;;;;;;10.10;7.40;;;13.30;1.00;;;;;;4967540;28;20678;-70
2023/04/28 08:53:48;;;;;;;9.83;8.13;;;13.40;1.00;;;;;;4967981;28;20190;-70
2023/04/28 08:56:35;;;;;;;11.60;7.60;;;13.50;1.00;;;;;;4966514;28;20272;-69
2023/04/28 08:59:03;;;;;;;9.53;7.17;;;13.80;1.00;;;;;;4966120;28;20195;-69
2023/04/28 09:01:31;;;;;;;13.67;7.03;;;14.10;1.00;;;;;;4950151;28;20256;-70
2023/04/28 09:04:02;;;;;;;11.17;7.50;;;14.40;1.00;;;;;;4965565;28;20234;-69
2023/04/28 09:06:37;;;;;;;12.90;6.87;;;14.30;1.00;;;;;;4980060;28;20240;-69
2023/04/28 09:09:18;;;;;;;8.57;6.50;;;14.20;1.00;;;;;;4949814;28;20277;-70
2023/04/28 09:11:58;;;;;;;7.80;6.32;;;14.50;1.00;;;;;;4965531;28;20605;-69
2023/04/28 09:14:33;;;;;;;6.75;6.03;;;14.60;1.00;;;;;;4966600;28;20526;-69
2023/04/28 09:17:01;;;;;;;8.02;6.93;;;14.50;1.00;;;;;;4950431;28;20308;-70
2023/04/28 09:19:36;;;;;;;9.00;6.90;;;14.70;1.00;;;;;;4967139;28;20219;-70
2023/04/28 09:22:04;;;;;;;8.40;6.90;;;15.10;1.00;;;;;;4988329;28;20188;-69
2023/04/28 09:24:52;;;;;;;10.75;6.70;;;14.70;1.00;;;;;;5005222;28;20204;-69
2023/04/28 09:27:28;;;;;;;10.23;6.45;;;15.80;1.00;;;;;;5006486;28;20217;-70
2023/04/28 09:29:55;;;;;;;6.80;5.53;;;17.50;1.00;;;;;;4986935;28;20619;-70
2023/04/28 09:32:23;;;;;;;9.93;5.85;;;20.10;1.00;;;;;;4985498;28;20607;-67
2023/04/28 09:34:55;;;;;;;8.48;4.90;;;20.50;1.00;;;;;;4988995;28;20284;-67
2023/04/28 09:37:30;;;;;;;8.70;5.28;;;22.20;1.00;;;;;;5002055;28;20239;-68
2023/04/28 09:40:04;;;;;;;5.57;4.97;;;23.00;1.00;;;;;;5004652;28;20258;-67
2023/04/28 09:42:40;;;;;;;6.88;5.25;;;21.70;1.00;;;;;;4988227;28;20215;-67
2023/04/28 09:45:09;;;;;;;6.25;5.65;;;21.50;1.00;;;;;;5003725;28;20692;-70
2023/04/28 09:47:38;;;;;;;7.75;5.50;;;20.00;1.00;;;;;;5005352;28;20272;-67
2023/04/28 09:50:08;;;;;;;6.35;5.50;;;18.40;1.00;;;;;;5005030;28;20224;-69
2023/04/28 09:52:35;;;;;;;6.50;5.53;;;19.50;1.00;;;;;;5005868;28;20209;-69
2023/04/28 09:55:05;;;;;;;7.88;5.85;;;20.70;1.00;;;;;;4971372;28;20209;-69
2023/04/28 09:57:34;;;;;;;5.82;5.22;;;19.90;1.00;;;;;;4988212;28;20632;-67
2023/04/28 10:00:05;;;;;;;7.57;5.65;;;20.80;1.00;;;;;;5004761;28;20933;-68
2023/04/28 10:02:34;;;;;;;6.90;5.57;;;21.00;1.00;;;;;;4988259;28;20729;-68
2023/04/28 10:05:09;;;;;;;8.93;5.43;;;21.40;1.00;;;;;;5004936;28;20212;-68
2023/04/28 10:07:38;;;;;;;6.70;5.47;;;19.80;1.00;;;;;;4988381;28;20255;-67
2023/04/28 10:10:07;;;;;;;6.07;5.30;;;19.30;1.00;;;;;;5003443;28;20220;-69
2023/04/28 10:12:36;;;;;;;9.52;5.75;;;18.50;1.00;;;;;;4971481;28;20221;-70
2023/04/28 10:15:06;;;;;;;8.73;5.78;;;18.80;1.00;;;;;;5004425;28;20223;-68
2023/04/28 10:17:35;;;;;;;7.53;5.55;;;19.10;1.00;;;;;;5002565;28;20697;-67
2023/04/28 10:20:03;;;;;;;6.97;5.60;;;19.50;1.00;;;;;;5004265;28;20224;-68
2023/04/28 10:22:42;;;;;;;9.48;6.50;;;19.30;1.00;;;;;;5002036;28;20661;-67
2023/04/28 10:25:30;;;;;;;7.20;5.97;;;19.10;1.00;;;;;;5004314;28;20204;-68
2023/04/28 10:27:58;;;;;;;7.32;6.40;;;19.10;1.00;;;;;;4989429;28;20189;-69
2023/04/28 10:30:30;;;;;;;6.38;5.68;;;20.00;1.00;;;;;;4986506;28;20215;-67
2023/04/28 10:33:12;;;;;;;7.22;5.63;;;20.50;1.00;;;;;;4986791;28;20243;-68
2023/04/28 10:35:45;;;;;;;8.80;6.18;;;19.30;1.00;;;;;;4987296;28;20193;-68
2023/04/28 10:38:16;;;;;;;6.65;5.65;;;19.70;1.00;;;;;;5004989;28;20697;-68
2023/04/28 10:40:47;;;;;;;7.93;5.78;;;20.40;1.00;;;;;;5003646;28;20681;-68
2023/04/28 10:43:33;;;;;;;10.35;6.40;;;19.90;1.00;;;;;;5004716;28;20193;-68
2023/04/28 10:46:03;;;;;;;7.82;5.72;;;19.40;1.00;;;;;;5002848;28;20200;-68
2023/04/28 10:48:36;;;;;;;7.57;5.70;;;19.90;1.00;;;;;;4986023;28;20201;-68
2023/04/28 10:51:03;;;;;;;7.72;5.55;;;19.60;1.00;;;;;;4987090;28;20243;-68
2023/04/28 10:53:42;;;;;;;7.22;5.78;;;19.40;1.00;;;;;;5004874;28;20308;-68
2023/04/28 10:56:12;;;;;;;6.60;6.00;;;19.10;1.00;;;;;;5004803;28;20189;-68
2023/04/28 10:58:44;;;;;;;10.50;6.05;;;19.00;1.00;;;;;;5004994;28;20280;-68
2023/04/28 11:01:18;;;;;;;6.72;5.47;;;19.10;1.00;;;;;;5004066;28;20197;-67
2023/04/28 11:04:09;;;;;;;6.75;5.50;;;18.60;1.00;;;;;;5004175;28;20564;-70
2023/04/28 11:06:35;;;;;;;8.52;6.03;;;18.50;1.00;;;;;;5004630;28;21661;-68
2023/04/28 11:09:31;;;;;;;7.20;6.00;;;18.90;1.00;;;;;;5005327;28;20274;-68
2023/04/28 11:12:10;;;;;;;6.72;6.03;;;19.40;1.00;;;;;;5002665;28;20217;-68
2023/04/28 11:14:39;;;;;;;7.95;6.05;;;19.50;1.00;;;;;;5004638;28;20207;-69
2023/04/28 11:17:10;;;;;;;6.65;5.95;;;20.20;1.00;;;;;;5004624;28;20622;-68
2023/04/28 11:19:42;;;;;;;5.97;5.47;;;21.30;1.00;;;;;;4986775;28;20212;-68
2023/04/28 11:22:17;;;;;;;6.75;5.28;;;22.30;1.00;;;;;;5003617;28;20960;-68
2023/04/28 11:25:01;;;;;;;7.43;5.25;;;23.40;1.00;;;;;;4987755;28;20730;-68
2023/04/28 11:27:30;;;;;;;6.95;5.65;;;23.30;1.00;;;;;;4987457;28;20228;-68
2023/04/28 11:29:58;;;;;;;8.55;6.25;;;21.70;1.00;;;;;;4987083;28;20196;-68
2023/04/28 11:32:32;;;;;;;7.50;5.55;;;21.00;1.00;;;;;;4985654;28;20738;-68
2023/04/28 11:35:00;;;;;;;9.00;6.43;;;21.00;1.00;;;;;;4973518;28;20600;-68
2023/04/28 11:37:27;;;;;;;10.63;6.47;;;20.60;1.00;;;;;;5006024;28;20185;-68
2023/04/28 11:39:56;;;;;;;8.40;5.55;;;19.60;1.00;;;;;;5005001;28;20188;-68
2023/04/28 11:42:26;;;;;;;6.75;5.40;;;20.00;1.00;;;;;;4987950;28;20231;-68
2023/04/28 11:44:53;;;;;;;7.28;5.85;;;20.60;1.00;;;;;;5007678;28;20199;-68
2023/04/28 11:47:33;;;;;;;7.40;5.82;;;20.70;1.00;;;;;;5007071;28;20200;-68
2023/04/28 11:50:01;;;;;;;7.40;5.60;;;20.90;1.00;;;;;;4969366;28;20299;-68
2023/04/28 11:52:29;;;;;;;7.57;5.95;;;20.70;1.00;;;;;;4987977;28;20213;-68
2023/04/28 11:54:58;;;;;;;9.88;6.30;;;20.30;1.00;;;;;;4974872;28;20205;-68
2023/04/28 11:57:26;;;;;;;9.25;6.15;;;19.60;1.00;;;;;;4989533;28;20729;-70
2023/04/28 12:00:10;;;;;;;7.55;6.20;;;18.80;1.00;;;;;;5007354;28;20283;-68
2023/04/28 12:02:38;;;;;;;8.45;5.88;;;19.10;1.00;;;;;;5008173;28;20747;-69
2023/04/28 12:05:06;;;;;;;7.97;5.20;;;19.30;1.00;;;;;;5008663;28;20215;-68
2023/04/28 12:07:44;;;;;;;6.32;4.95;;;19.20;1.00;;;;;;4991275;28;20201;-69
2023/04/28 12:10:15;;;;;;;7.95;5.18;;;18.80;1.00;;;;;;5006219;28;20656;-69
2023/04/28 12:12:44;;;;;;;6.07;5.07;;;18.70;1.00;;;;;;5001621;28;20209;-70
2023/04/28 12:15:18;;;;;;;8.57;5.82;;;18.90;1.00;;;;;;5005505;28;20483;-66
2023/04/28 12:17:49;;;;;;;8.98;6.05;;;18.90;1.00;;;;;;5007273;28;20189;-69
2023/04/28 12:20:38;;;;;;;7.95;6.00;;;18.60;1.00;;;;;;5005917;28;20228;-69
2023/04/28 12:23:06;;;;;;;8.75;6.10;;;18.30;1.00;;;;;;5002349;28;20225;-70
2023/04/28 12:25:43;;;;;;;8.27;6.13;;;18.10;1.00;;;;;;5006862;28;20651;-69
2023/04/28 12:28:10;;;;;;;8.07;5.80;;;18.00;1.00;;;;;;4990848;28;20311;-70
2023/04/28 12:30:43;;;;;;;8.73;5.88;;;17.60;1.00;;;;;;5006961;28;20197;-70
2023/04/28 12:33:24;;;;;;;7.13;5.38;;;17.80;1.00;;;;;;5006601;28;20316;-69
2023/04/28 12:35:53;;;;;;;7.15;5.20;;;17.70;1.00;;;;;;4986620;28;20197;-69
2023/04/28 12:38:22;;;;;;;6.22;4.65;;;17.90;1.00;;;;;;4999186;28;20259;-69
2023/04/28 12:40:48;;;;;;;7.57;5.22;;;17.70;1.00;;;;;;4991191;28;20271;-68
2023/04/28 12:43:15;;;;;;;6.45;4.75;;;17.70;1.00;;;;;;5006134;28;20203;-69
2023/04/28 12:45:42;;;;;;;5.30;4.47;;;17.90;1.00;;;;;;4987778;28;20213;-69
2023/04/28 12:48:09;;;;;;;6.57;5.55;;;17.70;1.00;;;;;;4989274;28;20283;-69
2023/04/28 12:50:37;;;;;;;10.27;5.53;;;17.50;1.00;;;;;;4990266;28;20672;-69
2023/04/28 12:53:04;;;;;;;9.32;5.55;;;17.40;1.00;;;;;;5005460;28;20205;-68
2023/04/28 12:55:31;;;;;;;7.82;5.53;;;17.30;1.00;;;;;;5007246;28;20647;-69
2023/04/28 12:57:58;;;;;;;6.65;5.75;;;17.10;1.00;;;;;;4990692;28;20211;-69
2023/04/28 13:00:25;;;;;;;6.75;5.40;;;17.00;1.00;;;;;;5007882;28;20294;-69
2023/04/28 13:02:52;;;;;;;5.90;4.75;;;17.10;1.00;;;;;;4991590;28;20236;-69
2023/04/28 13:05:19;;;;;;;4.75;4.25;;;16.90;1.00;;;;;;5005411;28;20229;-69
2023/04/28 13:07:48;;;;;;;4.88;4.38;;;16.90;1.00;;;;;;5003888;28;20197;-69